Time;durP1;ratioP1;P1;durP2;ratioP2;P2;SDS_P1;SDS_P2;PMS_P1;PMS_P2;Temp;Humidity;BMP_temperature;BMP_pressure;BME280_temperature;BME280_humidity;BME280_pressure;Samples;Min_cycle;Max_cycle;Signal;HPM_P1;HPM_P2
2021/10/20 00:00:08;;;;;;;19.10;7.65;;;;;;;;;;4982709;28;20069;-62
2021/10/20 00:02:38;;;;;;;8.30;5.55;;;;;;;;;;4983197;28;20699;-62
2021/10/20 00:05:04;;;;;;;10.05;5.60;;;;;;;;;;4982284;28;20030;-62
2021/10/20 00:07:30;;;;;;;19.30;7.75;;;;;;;;;;4981806;28;20116;-63
2021/10/20 00:09:56;;;;;;;11.52;6.40;;;;;;;;;;4983524;28;20030;-62
2021/10/20 00:12:22;;;;;;;17.33;6.10;;;;;;;;;;4982248;28;20022;-62
2021/10/20 00:14:48;;;;;;;29.90;7.65;;;;;;;;;;4982692;28;20064;-62
2021/10/20 00:17:14;;;;;;;9.35;5.45;;;;;;;;;;4982503;28;20062;-63
2021/10/20 00:19:40;;;;;;;11.88;6.30;;;;;;;;;;4982469;28;20117;-62
2021/10/20 00:22:06;;;;;;;12.45;6.88;;;;;;;;;;4982626;28;20043;-63
2021/10/20 00:24:32;;;;;;;11.50;6.20;;;;;;;;;;4982383;28;20455;-63
2021/10/20 00:26:58;;;;;;;12.60;6.82;;;;;;;;;;4965356;28;20030;-63
2021/10/20 00:29:24;;;;;;;11.65;6.55;;;;;;;;;;4996811;28;20450;-62
2021/10/20 00:31:50;;;;;;;10.48;6.00;;;;;;;;;;4982017;28;20126;-63
2021/10/20 00:34:16;;;;;;;14.30;6.93;;;;;;;;;;4982975;28;20685;-62
2021/10/20 00:36:42;;;;;;;22.67;9.52;;;;;;;;;;4982028;28;20034;-62
2021/10/20 00:39:08;;;;;;;9.65;6.28;;;;;;;;;;4981195;28;20053;-63
2021/10/20 00:41:34;;;;;;;9.85;6.82;;;;;;;;;;4981191;28;20125;-63
2021/10/20 00:44:00;;;;;;;13.25;7.13;;;;;;;;;;4997796;28;20121;-62
2021/10/20 00:46:26;;;;;;;12.27;6.85;;;;;;;;;;4982228;28;20045;-62
2021/10/20 00:48:51;;;;;;;11.50;6.70;;;14.30;99.90;;;;;;4981472;28;20030;-63
2021/10/20 00:51:17;;;;;;;11.40;6.85;;;;;;;;;;4981859;28;20030;-62
2021/10/20 00:53:43;;;;;;;15.32;7.57;;;;;;;;;;4981778;28;20037;-62
2021/10/20 00:56:09;;;;;;;13.35;7.60;;;;;;;;;;4979599;28;20093;-63
2021/10/20 00:58:37;;;;;;;14.90;7.97;;;;;;;;;;4979797;28;20406;-62
2021/10/20 01:01:03;;;;;;;15.60;7.93;;;;;;;;;;4981913;28;20150;-63
2021/10/20 01:03:29;;;;;;;14.55;8.02;;;;;;;;;;4980733;28;20042;-62
2021/10/20 01:05:55;;;;;;;14.13;8.38;;;;;;;;;;4980591;28;20700;-62
2021/10/20 01:08:21;;;;;;;16.25;8.65;;;;;;;;;;4981857;28;20026;-63
2021/10/20 01:10:47;;;;;;;13.75;8.60;;;;;;;;;;4982424;28;20032;-62
2021/10/20 01:13:13;;;;;;;14.23;8.80;;;;;;;;;;4981427;28;20402;-62
2021/10/20 01:15:39;;;;;;;16.92;9.15;;;;;;;;;;4982003;28;20125;-63
2021/10/20 01:18:05;;;;;;;16.83;8.77;;;;;;;;;;4981467;28;20034;-63
2021/10/20 01:20:31;;;;;;;15.10;9.30;;;;;;;;;;4981710;28;20586;-63
2021/10/20 01:22:57;;;;;;;18.48;9.60;;;;;;;;;;4981778;28;20042;-63
2021/10/20 01:25:23;;;;;;;15.50;8.90;;;;;;;;;;4980432;28;20224;-63
2021/10/20 01:27:49;;;;;;;14.18;9.02;;;;;;;;;;4981385;28;20129;-63
2021/10/20 01:30:15;;;;;;;14.65;8.98;;;;;;;;;;4980836;28;20026;-63
2021/10/20 01:32:41;;;;;;;16.85;8.95;;;;;;;;;;4980996;28;20038;-63
2021/10/20 01:35:07;;;;;;;15.85;8.98;;;;;;;;;;4981062;28;20097;-62
2021/10/20 01:37:33;;;;;;;14.77;9.10;;;;;;;;;;4980663;28;20045;-63
2021/10/20 01:39:59;;;;;;;17.77;8.60;;;;;;;;;;4981177;28;20049;-63
2021/10/20 01:42:25;;;;;;;15.60;8.60;;;;;;;;;;4979957;28;20073;-63
2021/10/20 01:44:51;;;;;;;16.58;9.05;;;;;;;;;;4981267;28;20609;-63
2021/10/20 01:47:17;;;;;;;13.82;8.73;;;;;;;;;;4980403;28;20281;-63
2021/10/20 01:49:42;;;;;;;16.27;9.45;;;14.00;99.90;;;;;;4980824;28;20038;-63
2021/10/20 01:52:08;;;;;;;14.77;9.15;;;;;;;;;;4995310;28;20066;-63
2021/10/20 01:54:34;;;;;;;14.77;8.65;;;;;;;;;;4980324;28;20034;-63
2021/10/20 01:57:00;;;;;;;14.48;8.63;;;;;;;;;;4979960;28;20034;-63
2021/10/20 01:59:26;;;;;;;15.45;8.32;;;;;;;;;;4981670;28;20050;-63
2021/10/20 02:01:52;;;;;;;15.98;8.57;;;;;;;;;;4980287;28;20026;-63
2021/10/20 02:04:18;;;;;;;15.32;9.65;;;;;;;;;;4981461;28;20415;-63
2021/10/20 02:06:44;;;;;;;13.60;8.20;;;;;;;;;;4979786;28;20580;-63
2021/10/20 02:09:10;;;;;;;15.23;9.18;;;;;;;;;;4980543;28;20109;-63
2021/10/20 02:11:36;;;;;;;18.90;10.55;;;;;;;;;;4981211;28;20039;-63
2021/10/20 02:14:02;;;;;;;22.30;10.57;;;;;;;;;;4981000;28;20152;-62
2021/10/20 02:16:28;;;;;;;20.40;11.43;;;;;;;;;;4983935;28;20170;-63
2021/10/20 02:18:54;;;;;;;14.73;9.73;;;;;;;;;;4981720;28;20684;-63
2021/10/20 02:21:20;;;;;;;15.73;9.52;;;;;;;;;;4984000;28;20042;-63
2021/10/20 02:23:46;;;;;;;17.85;9.95;;;;;;;;;;4982229;28;20491;-62
2021/10/20 02:26:12;;;;;;;35.03;12.52;;;;;;;;;;4984203;28;20042;-62
2021/10/20 02:28:38;;;;;;;24.83;11.93;;;;;;;;;;4984657;28;20044;-63
2021/10/20 02:31:04;;;;;;;25.52;11.05;;;;;;;;;;4984626;28;20034;-62
2021/10/20 02:33:30;;;;;;;21.17;10.43;;;;;;;;;;4984173;28;20030;-62
2021/10/20 02:35:56;;;;;;;13.52;8.13;;;;;;;;;;4983218;28;20045;-62
2021/10/20 02:38:22;;;;;;;25.13;11.18;;;;;;;;;;4997470;28;20041;-62
2021/10/20 02:40:48;;;;;;;15.20;7.80;;;;;;;;;;4983461;28;20053;-62
2021/10/20 02:43:14;;;;;;;12.57;8.07;;;;;;;;;;4983404;28;20482;-62
2021/10/20 02:45:40;;;;;;;25.73;10.40;;;;;;;;;;4984057;28;20042;-62
2021/10/20 02:48:06;;;;;;;30.58;11.20;;;;;;;;;;4982876;28;20042;-62
2021/10/20 02:50:32;;;;;;;21.48;10.38;;;;;;;;;;4982965;28;20037;-63
2021/10/20 02:52:58;;;;;;;16.80;8.70;;;;;;;;;;4990506;28;20034;-63
2021/10/20 02:55:24;;;;;;;25.77;11.77;;;;;;;;;;4983582;28;20034;-63
2021/10/20 02:57:50;;;;;;;24.88;10.70;;;;;;;;;;4982981;28;20414;-62
2021/10/20 03:00:16;;;;;;;24.13;9.18;;;;;;;;;;4983334;28;20041;-62
2021/10/20 03:02:42;;;;;;;16.75;7.82;;;;;;;;;;4983144;28;20405;-63
2021/10/20 03:05:08;;;;;;;13.05;7.70;;;;;;;;;;4983560;28;20049;-62
2021/10/20 03:07:34;;;;;;;12.20;7.72;;;;;;;;;;4982528;28;20816;-63
2021/10/20 03:10:00;;;;;;;12.65;7.47;;;;;;;;;;4982682;28;20038;-62
2021/10/20 03:12:26;;;;;;;18.95;7.90;;;;;;;;;;4984305;28;20037;-62
2021/10/20 03:14:52;;;;;;;14.98;7.72;;;;;;;;;;4981880;28;20062;-62
2021/10/20 03:17:18;;;;;;;11.20;7.45;;;;;;;;;;4984408;28;20573;-63
2021/10/20 03:19:44;;;;;;;10.65;6.88;;;;;;;;;;4982694;28;20038;-63
2021/10/20 03:22:10;;;;;;;10.13;6.82;;;;;;;;;;4983207;28;20045;-63
2021/10/20 03:24:36;;;;;;;9.27;6.20;;;;;;;;;;4983270;28;20034;-62
2021/10/20 03:27:02;;;;;;;11.43;6.93;;;;;;;;;;4981841;28;20133;-62
2021/10/20 03:29:28;;;;;;;13.00;6.65;;;;;;;;;;4983695;28;20034;-62
2021/10/20 03:31:54;;;;;;;11.10;6.25;;;;;;;;;;4981647;28;20041;-62
2021/10/20 03:34:20;;;;;;;11.20;6.80;;;;;;;;;;4982701;28;20057;-62
2021/10/20 03:36:46;;;;;;;11.70;6.75;;;;;;;;;;4982796;28;20108;-62
2021/10/20 03:39:12;;;;;;;12.02;6.78;;;;;;;;;;4982191;28;20121;-62
2021/10/20 03:41:38;;;;;;;12.30;7.00;;;;;;;;;;4983224;28;20069;-63
2021/10/20 03:44:04;;;;;;;11.13;7.15;;;;;;;;;;4982654;28;20244;-62
2021/10/20 03:46:30;;;;;;;13.48;6.80;;;;;;;;;;4982436;28;20049;-62
2021/10/20 03:48:56;;;;;;;13.30;6.82;;;;;;;;;;4982664;28;20081;-62
2021/10/20 03:51:21;;;;;;;15.52;6.30;;;14.40;99.90;;;;;;4982563;28;20080;-63
2021/10/20 03:53:47;;;;;;;12.23;6.88;;;;;;;;;;4982330;28;20790;-62
2021/10/20 03:56:13;;;;;;;9.75;6.40;;;;;;;;;;4983023;28;20080;-62
2021/10/20 03:58:39;;;;;;;9.93;6.47;;;;;;;;;;4984108;28;20045;-62
2021/10/20 04:01:05;;;;;;;9.57;5.80;;;;;;;;;;4983962;28;20038;-62
2021/10/20 04:03:31;;;;;;;10.73;6.03;;;;;;;;;;4983255;28;20038;-62
2021/10/20 04:05:57;;;;;;;11.68;6.15;;;;;;;;;;4983067;28;20034;-62
2021/10/20 04:08:23;;;;;;;9.02;5.68;;;;;;;;;;4983049;28;20394;-63
2021/10/20 04:10:50;;;;;;;8.93;5.20;;;;;;;;;;4982907;28;20039;-62
2021/10/20 04:13:16;;;;;;;10.25;6.03;;;;;;;;;;4983594;28;20783;-63
2021/10/20 04:15:42;;;;;;;10.27;6.28;;;;;;;;;;4983922;28;20035;-62
2021/10/20 04:18:08;;;;;;;8.13;5.22;;;;;;;;;;4983591;28;20034;-63
2021/10/20 04:20:34;;;;;;;8.40;5.40;;;;;;;;;;4982158;28;20554;-62
2021/10/20 04:23:00;;;;;;;10.10;5.15;;;;;;;;;;4982565;28;20097;-62
2021/10/20 04:25:26;;;;;;;10.02;6.22;;;;;;;;;;4981033;28;20038;-63
2021/10/20 04:27:52;;;;;;;11.85;5.38;;;;;;;;;;4980451;28;20038;-62
2021/10/20 04:30:18;;;;;;;8.07;5.50;;;;;;;;;;4983639;28;20056;-62
2021/10/20 04:32:44;;;;;;;7.57;5.05;;;;;;;;;;4983301;28;20494;-62
2021/10/20 04:35:10;;;;;;;12.35;5.50;;;;;;;;;;4981555;28;20042;-62
2021/10/20 04:37:36;;;;;;;6.80;5.00;;;;;;;;;;4981975;28;20030;-63
2021/10/20 04:40:02;;;;;;;12.82;6.53;;;;;;;;;;4982375;28;20042;-62
2021/10/20 04:42:28;;;;;;;8.45;4.55;;;;;;;;;;4981777;28;20113;-63
2021/10/20 04:44:54;;;;;;;11.07;6.07;;;;;;;;;;4982275;28;20633;-62
2021/10/20 04:47:20;;;;;;;8.85;4.70;;;;;;;;;;4981578;28;20039;-62
2021/10/20 04:49:46;;;;;;;7.90;5.32;;;;;;;;;;4983048;28;20061;-62
2021/10/20 04:52:12;;;;;;;11.32;5.63;;;;;;;;;;4982804;28;20368;-62
2021/10/20 04:54:37;;;;;;;49.38;9.77;;;;;;;;;;4982211;28;20076;-62
2021/10/20 04:57:04;;;;;;;7.13;4.53;;;;;;;;;;4978233;28;20038;-63
2021/10/20 04:59:31;;;;;;;8.55;4.38;;;;;;;;;;4982253;28;20144;-63
2021/10/20 05:01:57;;;;;;;7.60;5.32;;;;;;;;;;4982524;28;20042;-62
2021/10/20 05:04:23;;;;;;;8.95;5.07;;;;;;;;;;4981647;28;20030;-64
2021/10/20 05:06:49;;;;;;;6.93;4.70;;;;;;;;;;4982698;28;20121;-64
2021/10/20 05:09:15;;;;;;;8.70;4.60;;;;;;;;;;4981258;28;20031;-63
2021/10/20 05:11:41;;;;;;;6.78;4.28;;;;;;;;;;4981628;28;20482;-64
2021/10/20 05:14:07;;;;;;;7.22;4.47;;;;;;;;;;4979068;28;20109;-63
2021/10/20 05:16:33;;;;;;;8.98;4.95;;;;;;;;;;4981476;28;20470;-63
2021/10/20 05:18:59;;;;;;;7.50;4.30;;;;;;;;;;4981156;28;20030;-63
2021/10/20 05:21:25;;;;;;;8.23;4.38;;;;;;;;;;4981039;28;20097;-63
2021/10/20 05:23:51;;;;;;;8.45;4.75;;;;;;;;;;4981754;28;20401;-63
2021/10/20 05:26:17;;;;;;;7.07;4.50;;;;;;;;;;4981368;28;20038;-63
2021/10/20 05:28:43;;;;;;;6.10;4.30;;;;;;;;;;4982239;28;20141;-63
2021/10/20 05:31:09;;;;;;;6.72;4.53;;;;;;;;;;4981972;28;20113;-63
2021/10/20 05:33:35;;;;;;;7.35;4.50;;;;;;;;;;4981503;28;20132;-63
2021/10/20 05:36:01;;;;;;;6.55;4.57;;;;;;;;;;4982441;28;20038;-64
2021/10/20 05:38:27;;;;;;;8.70;4.18;;;;;;;;;;4981322;28;20117;-64
2021/10/20 05:40:53;;;;;;;6.53;4.32;;;;;;;;;;4982216;28;20700;-64
2021/10/20 05:43:19;;;;;;;7.00;4.13;;;;;;;;;;4981977;28;20057;-63
2021/10/20 05:45:45;;;;;;;9.48;4.47;;;;;;;;;;4981940;28;20546;-63
2021/10/20 05:48:11;;;;;;;8.18;4.00;;;;;;;;;;4982331;28;20037;-63
2021/10/20 05:50:37;;;;;;;9.13;4.60;;;;;;;;;;4984583;28;20026;-63
2021/10/20 05:53:03;;;;;;;8.10;4.90;;;;;;;;;;4985123;28;20027;-63
2021/10/20 05:55:29;;;;;;;9.45;4.38;;;;;;;;;;4985068;28;20038;-63
2021/10/20 05:57:55;;;;;;;5.20;3.88;;;;;;;;;;4983887;28;20537;-63
2021/10/20 06:00:21;;;;;;;10.15;4.70;;;;;;;;;;4983098;28;20111;-63
2021/10/20 06:02:47;;;;;;;41.35;8.93;;;;;;;;;;4983935;28;20037;-62
2021/10/20 06:05:13;;;;;;;49.53;10.65;;;;;;;;;;4984115;28;20038;-62
2021/10/20 06:07:39;;;;;;;40.05;9.25;;;;;;;;;;4982184;28;20041;-62
2021/10/20 06:10:05;;;;;;;48.60;9.63;;;;;;;;;;4975303;28;20030;-63
2021/10/20 06:12:31;;;;;;;7.20;3.90;;;;;;;;;;4981666;28;20036;-62
2021/10/20 06:14:57;;;;;;;5.38;3.97;;;;;;;;;;4979249;28;20042;-63
2021/10/20 06:17:23;;;;;;;5.75;4.00;;;;;;;;;;4983035;28;20037;-62
2021/10/20 06:19:49;;;;;;;26.63;5.93;;;;;;;;;;4982912;28;20034;-62
2021/10/20 06:22:15;;;;;;;41.35;8.48;;;;;;;;;;4982781;28;20042;-62
2021/10/20 06:24:41;;;;;;;76.85;13.50;;;;;;;;;;4973699;28;20033;-62
2021/10/20 06:27:07;;;;;;;90.45;12.35;;;;;;;;;;4982424;28;20039;-62
2021/10/20 06:29:33;;;;;;;55.75;8.25;;;;;;;;;;4983951;28;20030;-62
2021/10/20 06:31:59;;;;;;;59.78;8.98;;;;;;;;;;4981024;28;20031;-62
2021/10/20 06:34:25;;;;;;;5.97;4.20;;;;;;;;;;4983907;28;20045;-62
2021/10/20 06:36:51;;;;;;;55.92;8.55;;;;;;;;;;4982841;28;20406;-62
2021/10/20 06:39:21;;;;;;;8.52;4.70;;;;;;;;;;4982749;28;20026;-63
2021/10/20 06:41:47;;;;;;;5.50;3.80;;;;;;;;;;4983204;28;20042;-62
2021/10/20 06:44:13;;;;;;;68.30;12.05;;;;;;;;;;4982161;28;20596;-61
2021/10/20 06:46:39;;;;;;;54.20;9.52;;;;;;;;;;4981819;28;20038;-62
2021/10/20 06:49:05;;;;;;;54.20;9.60;;;;;;;;;;4983157;28;20039;-62
2021/10/20 06:51:31;;;;;;;36.45;8.13;;;;;;;;;;4983532;28;20491;-61
2021/10/20 06:53:58;;;;;;;6.65;3.60;;;;;;;;;;4983536;28;20030;-63
2021/10/20 06:56:24;;;;;;;33.95;8.77;;;;;;;;;;4946231;28;1061904;-62
2021/10/20 06:58:50;;;;;;;34.30;8.30;;;;;;;;;;4984351;28;20129;-62
2021/10/20 07:01:16;;;;;;;29.20;7.80;;;;;;;;;;4983363;28;20069;-61
2021/10/20 07:03:43;;;;;;;31.25;8.93;;;;;;;;;;4983183;28;20038;-62
2021/10/20 07:06:09;;;;;;;20.27;6.07;;;;;;;;;;4984151;28;20748;-62
2021/10/20 07:08:35;;;;;;;45.33;12.05;;;;;;;;;;4978464;28;20034;-62
2021/10/20 07:11:01;;;;;;;30.67;10.10;;;;;;;;;;4977528;28;20040;-62
2021/10/20 07:13:27;;;;;;;28.00;8.82;;;;;;;;;;4977373;28;20034;-62
2021/10/20 07:15:54;;;;;;;10.02;3.78;;;;;;;;;;4975539;28;20041;-62
2021/10/20 07:18:20;;;;;;;22.50;8.02;;;;;;;;;;4978115;28;20027;-62
2021/10/20 07:20:46;;;;;;;16.60;6.93;;;;;;;;;;4977956;28;20065;-62
2021/10/20 07:23:12;;;;;;;8.43;3.45;;;;;;;;;;4978487;28;20161;-62
2021/10/20 07:25:38;;;;;;;19.83;6.22;;;;;;;;;;4980098;28;20554;-63
2021/10/20 07:28:04;;;;;;;5.55;3.10;;;;;;;;;;4981171;28;20128;-62
2021/10/20 07:30:30;;;;;;;15.98;5.65;;;;;;;;;;4981670;28;20117;-62
2021/10/20 07:32:56;;;;;;;18.75;6.15;;;;;;;;;;4980615;28;20165;-62
2021/10/20 07:35:22;;;;;;;16.38;5.57;;;;;;;;;;4983162;28;20671;-62
2021/10/20 07:37:48;;;;;;;15.57;4.10;;;;;;;;;;4981720;28;20108;-62
2021/10/20 07:40:14;;;;;;;7.32;3.20;;;;;;;;;;4980986;28;20038;-63
2021/10/20 07:42:44;;;;;;;24.00;7.28;;;;;;;;;;4981931;28;20062;-62
2021/10/20 07:45:10;;;;;;;13.68;6.05;;;;;;;;;;4975302;28;20069;-62
2021/10/20 07:47:36;;;;;;;30.42;7.93;;;;;;;;;;4976774;28;20777;-62
2021/10/20 07:50:02;;;;;;;7.15;2.88;;;;;;;;;;4980869;28;20030;-62
2021/10/20 07:52:28;;;;;;;4.78;3.00;;;;;;;;;;4979052;28;20537;-63
2021/10/20 07:54:54;;;;;;;15.15;4.35;;;16.00;99.90;;;;;;4979863;28;20030;-62
2021/10/20 07:57:20;;;;;;;42.33;7.63;;;;;;;;;;4978315;28;20061;-62
2021/10/20 07:59:46;;;;;;;49.97;7.65;;;;;;;;;;4979542;28;20026;-62
2021/10/20 08:02:13;;;;;;;9.68;3.45;;;;;;;;;;4979933;28;20038;-62
2021/10/20 08:04:39;;;;;;;12.57;5.25;;;;;;;;;;4978785;28;20042;-64
2021/10/20 08:07:05;;;;;;;6.43;3.35;;;;;;;;;;4979155;28;20168;-62
2021/10/20 08:09:31;;;;;;;9.55;4.55;;;;;;;;;;4979571;28;20113;-62
2021/10/20 08:11:57;;;;;;;12.65;5.88;;;;;;;;;;4983441;28;20033;-62
2021/10/20 08:14:23;;;;;;;22.13;6.15;;;;;;;;;;4978239;28;20038;-62
2021/10/20 08:16:49;;;;;;;39.67;7.43;;;;;;;;;;4982275;28;20034;-62
2021/10/20 08:19:15;;;;;;;57.40;8.30;;;;;;;;;;4983659;28;20124;-62
2021/10/20 08:21:41;;;;;;;7.85;3.85;;;;;;;;;;4980906;28;20113;-63
2021/10/20 08:24:07;;;;;;;7.18;3.83;;;;;;;;;;4981610;28;20487;-62
2021/10/20 08:26:32;;;;;;;6.53;3.25;;;;;;;;;;4982268;28;20571;-62
2021/10/20 08:28:58;;;;;;;9.07;4.07;;;;;;;;;;4980606;28;20038;-63
2021/10/20 08:31:24;;;;;;;7.85;3.42;;;;;;;;;;4994248;28;20061;-63
2021/10/20 08:33:50;;;;;;;5.43;2.97;;;;;;;;;;4980356;28;20117;-62
2021/10/20 08:36:16;;;;;;;5.97;2.80;;;;;;;;;;4981577;28;20034;-62
2021/10/20 08:38:42;;;;;;;5.28;2.67;;;;;;;;;;4982421;28;20100;-62
2021/10/20 08:41:08;;;;;;;5.03;2.90;;;;;;;;;;4982698;28;20124;-63
2021/10/20 08:43:35;;;;;;;6.65;3.00;;;;;;;;;;4981924;28;20042;-62
2021/10/20 08:46:01;;;;;;;4.57;2.80;;;;;;;;;;4982666;28;20030;-63
2021/10/20 08:48:27;;;;;;;4.10;2.80;;;;;;;;;;4981622;28;20031;-62
2021/10/20 08:50:53;;;;;;;4.63;3.08;;;;;;;;;;4982663;28;20037;-62
2021/10/20 08:53:19;;;;;;;5.32;2.60;;;;;;;;;;4982319;28;20038;-62
2021/10/20 08:55:44;;;;;;;3.88;2.40;;;;;;;;;;4981951;28;20037;-63
2021/10/20 08:58:10;;;;;;;3.60;2.60;;;;;;;;;;4981905;28;20046;-62
2021/10/20 09:00:36;;;;;;;4.65;2.55;;;;;;;;;;4982104;28;20181;-61
2021/10/20 09:03:02;;;;;;;3.90;2.38;;;;;;;;;;4982124;28;20037;-62
2021/10/20 09:05:29;;;;;;;8.50;2.90;;;;;;;;;;4981749;28;20279;-61
2021/10/20 09:07:55;;;;;;;7.88;3.00;;;;;;;;;;4980837;28;20026;-62
2021/10/20 09:10:21;;;;;;;8.30;2.90;;;;;;;;;;4982341;28;20065;-62
2021/10/20 09:12:48;;;;;;;11.20;2.58;;;;;;;;;;4980001;28;20027;-62
2021/10/20 09:15:18;;;;;;;5.28;2.70;;;;;;;;;;4980909;28;20046;-61
2021/10/20 09:17:44;;;;;;;6.25;2.60;;;;;;;;;;4981450;28;20447;-61
2021/10/20 09:20:10;;;;;;;7.78;2.40;;;;;;;;;;4988086;28;20385;-62
2021/10/20 09:22:36;;;;;;;3.88;2.35;;;;;;;;;;4978449;28;20042;-62
2021/10/20 09:25:02;;;;;;;8.68;2.63;;;;;;;;;;4979748;28;20042;-62
2021/10/20 09:27:29;;;;;;;4.68;2.45;;;;;;;;;;4979282;28;20030;-62
2021/10/20 09:29:55;;;;;;;4.47;2.72;;;;;;;;;;4981258;28;20065;-63
2021/10/20 09:32:21;;;;;;;7.63;2.78;;;;;;;;;;4980535;28;20062;-62
2021/10/20 09:34:47;;;;;;;6.35;3.05;;;;;;;;;;4988289;28;20458;-62
2021/10/20 09:37:13;;;;;;;6.78;2.83;;;;;;;;;;4978914;28;20034;-62
2021/10/20 09:39:39;;;;;;;4.28;2.75;;;;;;;;;;4979100;28;20394;-63
2021/10/20 09:42:05;;;;;;;4.93;2.90;;;;;;;;;;4978885;28;20117;-62
2021/10/20 09:44:31;;;;;;;5.25;2.83;;;;;;;;;;4979419;28;20864;-62
2021/10/20 09:46:57;;;;;;;6.18;3.03;;;;;;;;;;4979163;28;20038;-62
2021/10/20 09:49:23;;;;;;;4.82;2.85;;;;;;;;;;4979411;28;20034;-62
2021/10/20 09:51:49;;;;;;;3.95;2.40;;;;;;;;;;4980029;28;20093;-63
2021/10/20 09:54:15;;;;;;;7.13;3.45;;;;;;;;;;4979776;28;20074;-62
2021/10/20 09:56:41;;;;;;;12.25;4.93;;;;;;;;;;4980120;28;20133;-62
2021/10/20 09:59:07;;;;;;;8.50;4.60;;;;;;;;;;4978339;28;20031;-61
2021/10/20 10:01:33;;;;;;;10.55;3.55;;;;;;;;;;4979953;28;20454;-61
2021/10/20 10:04:04;;;;;;;23.92;5.90;;;;;;;;;;4979640;28;20042;-62
2021/10/20 10:06:30;;;;;;;16.98;4.70;;;;;;;;;;4978713;28;20034;-62
2021/10/20 10:08:56;;;;;;;37.28;9.57;;;;;;;;;;4979552;28;20546;-61
2021/10/20 10:11:22;;;;;;;13.10;4.65;;;;;;;;;;4980205;28;20030;-62
2021/10/20 10:13:48;;;;;;;35.00;8.15;;;;;;;;;;4979548;28;20030;-62
2021/10/20 10:16:14;;;;;;;37.10;6.72;;;;;;;;;;4979956;28;20034;-62
2021/10/20 10:18:40;;;;;;;67.03;10.00;;;;;;;;;;4978537;28;20395;-62
2021/10/20 10:21:06;;;;;;;74.13;10.20;;;;;;;;;;4979687;28;20674;-62
2021/10/20 10:23:32;;;;;;;8.02;3.65;;;;;;;;;;4979792;28;20093;-62
2021/10/20 10:25:58;;;;;;;62.53;9.48;;;;;;;;;;4978073;28;20034;-62
2021/10/20 10:28:24;;;;;;;64.05;9.70;;;;;;;;;;4978736;28;20030;-62
2021/10/20 10:30:50;;;;;;;58.47;9.25;;;;;;;;;;4979713;28;20110;-62
2021/10/20 10:33:16;;;;;;;64.93;17.67;;;;;;;;;;4980131;28;20133;-62
2021/10/20 10:35:42;;;;;;;29.95;7.97;;;;;;;;;;4982267;28;20057;-62
2021/10/20 10:38:09;;;;;;;60.65;9.45;;;;;;;;;;4981601;28;20499;-62
2021/10/20 10:40:35;;;;;;;66.55;10.65;;;;;;;;;;4981369;28;20038;-62
2021/10/20 10:43:01;;;;;;;69.03;11.80;;;;;;;;;;4982215;28;20485;-62
2021/10/20 10:45:26;;;;;;;67.25;9.80;;;;;;;;;;4984578;28;20030;-69
2021/10/20 10:47:53;;;;;;;35.88;7.70;;;;;;;;;;4984290;28;20033;-70
2021/10/20 10:50:18;;;;;;;6.30;3.92;;;;;;;;;;4978776;28;20030;-70
2021/10/20 10:52:45;;;;;;;12.63;4.90;;;;;;;;;;4982433;28;20041;-70
2021/10/20 10:55:16;;;;;;;63.42;9.55;;;;;;;;;;4982161;28;20584;-69
2021/10/20 10:57:42;;;;;;;50.15;9.18;;;;;;;;;;4980546;28;20495;-69
2021/10/20 11:00:08;;;;;;;7.35;3.83;;;;;;;;;;4981679;28;20104;-70
2021/10/20 11:02:34;;;;;;;25.70;5.63;;;;;;;;;;4981099;28;20121;-69
2021/10/20 11:05:02;;;;;;;75.03;10.73;;;;;;;;;;4980951;28;20026;-70
2021/10/20 11:07:28;;;;;;;6.05;3.95;;;;;;;;;;4978571;28;20042;-70
2021/10/20 11:09:54;;;;;;;10.60;4.28;;;;;;;;;;4981788;28;20038;-70
2021/10/20 11:12:20;;;;;;;40.97;7.93;;;;;;;;;;4981037;28;20042;-70
2021/10/20 11:14:48;;;;;;;58.47;10.18;;;;;;;;;;4981304;28;20035;-70
2021/10/20 11:17:14;;;;;;;59.47;9.55;;;;;;;;;;4978404;28;20999;-70
2021/10/20 11:19:40;;;;;;;32.08;6.85;;;;;;;;;;4978681;28;20045;-70
2021/10/20 11:22:06;;;;;;;24.48;5.90;;;;;;;;;;4980636;28;20231;-69
2021/10/20 11:24:32;;;;;;;13.40;4.72;;;;;;;;;;4981227;28;20643;-69
2021/10/20 11:27:01;;;;;;;11.80;4.68;;;;;;;;;;4979987;28;20082;-70
2021/10/20 11:29:27;;;;;;;22.88;6.18;;;;;;;;;;4981900;28;20121;-69
2021/10/20 11:31:53;;;;;;;28.25;7.60;;;;;;;;;;4980057;28;20151;-70
2021/10/20 11:34:19;;;;;;;17.33;5.40;;;;;;;;;;4981662;28;20145;-70
2021/10/20 11:36:45;;;;;;;28.02;7.03;;;;;;;;;;4982403;28;20491;-69
2021/10/20 11:39:11;;;;;;;31.38;6.57;;;;;;;;;;4981974;28;20109;-70
2021/10/20 11:41:38;;;;;;;33.78;7.25;;;;;;;;;;4982392;28;20034;-69
2021/10/20 11:44:04;;;;;;;28.55;6.78;;;;;;;;;;4983713;28;20034;-71
2021/10/20 11:46:30;;;;;;;37.97;7.65;;;;;;;;;;4982890;28;20041;-70
2021/10/20 11:48:56;;;;;;;20.42;5.15;;;;;;;;;;4982119;28;20038;-70
2021/10/20 11:51:22;;;;;;;10.73;3.88;;;;;;;;;;4982650;28;20034;-70
2021/10/20 11:53:48;;;;;;;16.35;5.15;;;;;;;;;;4981723;28;20057;-69
2021/10/20 11:56:14;;;;;;;24.48;6.50;;;;;;;;;;4980844;28;20550;-69
2021/10/20 11:58:42;;;;;;;21.63;6.18;;;;;;;;;;4981352;28;20038;-70
2021/10/20 12:01:08;;;;;;;10.20;4.15;;;;;;;;;;4980951;28;20406;-69
2021/10/20 12:03:34;;;;;;;29.63;12.13;;;;;;;;;;4995839;28;20030;-68
2021/10/20 12:06:00;;;;;;;16.33;5.82;;;;;;;;;;4980764;28;20042;-69
2021/10/20 12:08:26;;;;;;;7.32;3.13;;;;;;;;;;4978640;28;20041;-70
2021/10/20 12:10:52;;;;;;;13.07;5.68;;;;;;;;;;4978882;28;20173;-70
2021/10/20 12:13:18;;;;;;;13.18;5.72;;;;;;;;;;4979579;28;20034;-69
2021/10/20 12:15:43;;;;;;;5.57;3.13;;;17.60;99.90;;;;;;4981073;28;20034;-70
2021/10/20 12:18:09;;;;;;;7.20;3.20;;;17.80;99.90;;;;;;4994602;28;20123;-69
2021/10/20 12:20:35;;;;;;;4.85;2.78;;;18.30;99.90;;;;;;4979810;28;20402;-70
2021/10/20 12:23:01;;;;;;;10.70;4.30;;;;;;;;;;4981527;28;20126;-70
2021/10/20 12:25:27;;;;;;;41.97;6.57;;;;;;;;;;4980800;28;20600;-69
2021/10/20 12:27:53;;;;;;;35.10;6.53;;;;;;;;;;4980895;28;20038;-69
2021/10/20 12:30:19;;;;;;;43.30;7.97;;;;;;;;;;4977392;28;20034;-69
2021/10/20 12:32:46;;;;;;;6.70;2.88;;;;;;;;;;4979660;28;20101;-69
2021/10/20 12:35:12;;;;;;;7.85;3.60;;;;;;;;;;4980606;28;20085;-69
2021/10/20 12:37:38;;;;;;;11.15;5.07;;;;;;;;;;4979381;28;20485;-69
2021/10/20 12:40:04;;;;;;;9.90;5.25;;;;;;;;;;4980797;28;20026;-69
2021/10/20 12:42:30;;;;;;;7.68;3.10;;;;;;;;;;4994994;28;20049;-71
2021/10/20 12:44:56;;;;;;;5.10;2.58;;;;;;;;;;4993727;28;20144;-70
2021/10/20 12:47:22;;;;;;;8.10;2.90;;;;;;;;;;4980373;28;20877;-70
2021/10/20 12:49:47;;;;;;;7.28;3.08;;;;;;;;;;4980214;28;20037;-70
2021/10/20 12:52:13;;;;;;;9.05;2.80;;;;;;;;;;4979608;28;20030;-71
2021/10/20 12:54:40;;;;;;;8.93;2.97;;;;;;;;;;4979764;28;20037;-71
2021/10/20 12:57:06;;;;;;;4.85;2.50;;;;;;;;;;4978511;28;20687;-70
2021/10/20 12:59:32;;;;;;;3.38;2.47;;;;;;;;;;4979898;28;20061;-71
2021/10/20 13:01:58;;;;;;;5.50;3.00;;;;;;;;;;4980170;28;20102;-71
2021/10/20 13:04:24;;;;;;;8.70;2.83;;;;;;;;;;4978785;28;20474;-70
2021/10/20 13:06:50;;;;;;;6.80;3.00;;;;;;;;;;4979959;28;20092;-72
2021/10/20 13:09:16;;;;;;;7.97;2.97;;;;;;;;;;4978976;28;20038;-71
2021/10/20 13:11:42;;;;;;;7.13;2.83;;;;;;;;;;4978507;28;20111;-71
2021/10/20 13:14:08;;;;;;;11.73;4.10;;;;;;;;;;4978334;28;20529;-72
2021/10/20 13:16:34;;;;;;;5.38;2.95;;;;;;;;;;4988125;28;20038;-70
2021/10/20 13:19:00;;;;;;;4.15;2.90;;;;;;;;;;4974740;28;20034;-71
2021/10/20 13:21:26;;;;;;;6.70;2.72;;;;;;;;;;4976945;28;20038;-70
2021/10/20 13:23:53;;;;;;;6.85;2.67;;;;;;;;;;4977078;28;20155;-70
2021/10/20 13:26:20;;;;;;;5.57;2.70;;;;;;;;;;4978960;28;20070;-70
2021/10/20 13:28:46;;;;;;;5.78;2.75;;;;;;;;;;4978314;28;20041;-70
2021/10/20 13:31:12;;;;;;;10.15;2.58;;;;;;;;;;4981168;28;20038;-70
2021/10/20 13:33:38;;;;;;;7.13;3.22;;;;;;;;;;4978376;28;20027;-70
2021/10/20 13:36:10;;;;;;;11.93;3.33;;;;;;;;;;4975283;28;20039;-70
2021/10/20 13:38:36;;;;;;;6.47;3.38;;;;;;;;;;4976248;28;20049;-71
2021/10/20 13:41:02;;;;;;;7.72;3.00;;;;;;;;;;4978026;28;20038;-70
2021/10/20 13:43:28;;;;;;;8.93;2.90;;;;;;;;;;4978731;28;20035;-70
2021/10/20 13:45:54;;;;;;;10.82;2.88;;;;;;;;;;4979237;28;20495;-72
2021/10/20 13:48:20;;;;;;;5.10;2.67;;;;;;;;;;4978340;28;20501;-70
2021/10/20 13:50:47;;;;;;;4.25;2.75;;;;;;;;;;4979625;28;20035;-72
2021/10/20 13:53:13;;;;;;;10.15;2.63;;;;;;;;;;4979000;28;20042;-70
2021/10/20 13:55:39;;;;;;;4.55;2.58;;;;;;;;;;4978163;28;20112;-71
2021/10/20 13:58:05;;;;;;;4.82;3.45;;;;;;;;;;4979509;28;20034;-71
2021/10/20 14:00:31;;;;;;;4.80;2.60;;;;;;;;;;4977952;28;20038;-71
2021/10/20 14:02:57;;;;;;;5.10;2.70;;;;;;;;;;4978015;28;20123;-71
2021/10/20 14:05:24;;;;;;;5.68;2.70;;;;;;;;;;4979906;28;20034;-71
2021/10/20 14:07:50;;;;;;;7.82;2.47;;;;;;;;;;4989430;28;20457;-71
2021/10/20 14:10:16;;;;;;;6.82;2.80;;;;;;;;;;4981028;28;20034;-70
2021/10/20 14:12:42;;;;;;;7.65;2.78;;;;;;;;;;4983302;28;20603;-71
2021/10/20 14:15:08;;;;;;;4.88;2.60;;;;;;;;;;4979788;28;20827;-70
2021/10/20 14:17:34;;;;;;;5.43;2.60;;;;;;;;;;4980927;28;20037;-71
2021/10/20 14:20:02;;;;;;;5.80;2.95;;;;;;;;;;4980865;28;20038;-71
2021/10/20 14:22:28;;;;;;;3.63;2.40;;;;;;;;;;4981476;28;20034;-68